sensor_id;sensor_type;location;lat;lon;timestamp;P1;durP1;ratioP1;P2;durP2;ratioP2
11078;SDS011;5592;49.234;7.268;2023-02-24T00:01:51;35.00;;;16.77;;
11078;SDS011;5592;49.234;7.268;2023-02-24T00:04:32;31.93;;;17.10;;
11078;SDS011;5592;49.234;7.268;2023-02-24T00:07:00;36.90;;;15.70;;
11078;SDS011;5592;49.234;7.268;2023-02-24T00:09:27;39.33;;;17.93;;
11078;SDS011;5592;49.234;7.268;2023-02-24T00:11:55;36.10;;;17.80;;
11078;SDS011;5592;49.234;7.268;2023-02-24T00:14:24;31.37;;;16.87;;
11078;SDS011;5592;49.234;7.268;2023-02-24T00:16:55;36.97;;;17.20;;
11078;SDS011;5592;49.234;7.268;2023-02-24T00:19:22;33.63;;;16.60;;
11078;SDS011;5592;49.234;7.268;2023-02-24T00:21:49;39.10;;;18.07;;
11078;SDS011;5592;49.234;7.268;2023-02-24T00:24:16;37.63;;;18.40;;
11078;SDS011;5592;49.234;7.268;2023-02-24T00:26:43;38.07;;;19.57;;
11078;SDS011;5592;49.234;7.268;2023-02-24T00:29:10;38.27;;;18.07;;
11078;SDS011;5592;49.234;7.268;2023-02-24T00:31:37;37.53;;;19.10;;
11078;SDS011;5592;49.234;7.268;2023-02-24T00:34:05;41.50;;;20.40;;
11078;SDS011;5592;49.234;7.268;2023-02-24T00:36:32;43.13;;;18.83;;
11078;SDS011;5592;49.234;7.268;2023-02-24T00:38:59;42.20;;;19.47;;
11078;SDS011;5592;49.234;7.268;2023-02-24T00:41:27;36.73;;;17.50;;
11078;SDS011;5592;49.234;7.268;2023-02-24T00:43:59;38.87;;;18.43;;
11078;SDS011;5592;49.234;7.268;2023-02-24T00:46:34;41.70;;;19.37;;
11078;SDS011;5592;49.234;7.268;2023-02-24T00:49:02;43.37;;;19.37;;
11078;SDS011;5592;49.234;7.268;2023-02-24T00:51:30;41.33;;;20.80;;
11078;SDS011;5592;49.234;7.268;2023-02-24T00:54:01;44.77;;;20.83;;
11078;SDS011;5592;49.234;7.268;2023-02-24T00:56:28;45.57;;;19.83;;
11078;SDS011;5592;49.234;7.268;2023-02-24T00:58:54;41.87;;;19.93;;
11078;SDS011;5592;49.234;7.268;2023-02-24T01:01:23;46.97;;;20.73;;
11078;SDS011;5592;49.234;7.268;2023-02-24T01:03:56;42.90;;;21.00;;
11078;SDS011;5592;49.234;7.268;2023-02-24T01:06:25;44.40;;;19.70;;
11078;SDS011;5592;49.234;7.268;2023-02-24T01:08:53;42.90;;;20.10;;
11078;SDS011;5592;49.234;7.268;2023-02-24T01:11:20;44.50;;;21.33;;
11078;SDS011;5592;49.234;7.268;2023-02-24T01:14:10;45.70;;;20.03;;
11078;SDS011;5592;49.234;7.268;2023-02-24T01:16:39;43.57;;;20.40;;
11078;SDS011;5592;49.234;7.268;2023-02-24T01:19:06;50.17;;;21.57;;
11078;SDS011;5592;49.234;7.268;2023-02-24T01:21:32;44.43;;;20.97;;
11078;SDS011;5592;49.234;7.268;2023-02-24T01:23:59;41.80;;;20.57;;
11078;SDS011;5592;49.234;7.268;2023-02-24T01:26:25;43.43;;;20.47;;
11078;SDS011;5592;49.234;7.268;2023-02-24T01:28:52;44.20;;;21.10;;
11078;SDS011;5592;49.234;7.268;2023-02-24T01:31:19;55.67;;;22.60;;
11078;SDS011;5592;49.234;7.268;2023-02-24T01:33:48;47.10;;;22.20;;
11078;SDS011;5592;49.234;7.268;2023-02-24T01:36:15;52.67;;;21.73;;
11078;SDS011;5592;49.234;7.268;2023-02-24T01:38:42;43.23;;;20.40;;
11078;SDS011;5592;49.234;7.268;2023-02-24T01:41:10;42.47;;;19.70;;
11078;SDS011;5592;49.234;7.268;2023-02-24T01:46:27;41.77;;;20.30;;
11078;SDS011;5592;49.234;7.268;2023-02-24T01:48:55;49.47;;;21.20;;
11078;SDS011;5592;49.234;7.268;2023-02-24T01:51:23;54.83;;;22.10;;
11078;SDS011;5592;49.234;7.268;2023-02-24T01:53:53;51.67;;;20.97;;
11078;SDS011;5592;49.234;7.268;2023-02-24T01:56:19;45.93;;;21.30;;
11078;SDS011;5592;49.234;7.268;2023-02-24T01:58:45;40.93;;;18.83;;
11078;SDS011;5592;49.234;7.268;2023-02-24T02:01:11;44.13;;;20.03;;
11078;SDS011;5592;49.234;7.268;2023-02-24T02:03:41;44.90;;;22.70;;
11078;SDS011;5592;49.234;7.268;2023-02-24T02:06:09;49.83;;;19.90;;
11078;SDS011;5592;49.234;7.268;2023-02-24T02:08:39;53.20;;;21.80;;
11078;SDS011;5592;49.234;7.268;2023-02-24T02:11:10;44.63;;;19.60;;
11078;SDS011;5592;49.234;7.268;2023-02-24T02:13:39;49.67;;;20.80;;
11078;SDS011;5592;49.234;7.268;2023-02-24T02:16:11;48.13;;;19.70;;
11078;SDS011;5592;49.234;7.268;2023-02-24T02:19:46;52.30;;;21.60;;
11078;SDS011;5592;49.234;7.268;2023-02-24T02:24:40;53.00;;;21.63;;
11078;SDS011;5592;49.234;7.268;2023-02-24T02:43:46;56.67;;;21.60;;
11078;SDS011;5592;49.234;7.268;2023-02-24T02:49:04;49.57;;;21.60;;
11078;SDS011;5592;49.234;7.268;2023-02-24T02:51:39;47.00;;;20.77;;
11078;SDS011;5592;49.234;7.268;2023-02-24T02:54:14;54.53;;;22.33;;
11078;SDS011;5592;49.234;7.268;2023-02-24T02:56:50;57.40;;;23.07;;
11078;SDS011;5592;49.234;7.268;2023-02-24T02:59:36;47.43;;;21.10;;
11078;SDS011;5592;49.234;7.268;2023-02-24T03:02:07;54.57;;;21.50;;
11078;SDS011;5592;49.234;7.268;2023-02-24T03:04:47;51.93;;;19.40;;
11078;SDS011;5592;49.234;7.268;2023-02-24T03:07:15;44.13;;;19.60;;
11078;SDS011;5592;49.234;7.268;2023-02-24T03:09:45;45.17;;;20.03;;
11078;SDS011;5592;49.234;7.268;2023-02-24T03:12:18;54.63;;;21.10;;
11078;SDS011;5592;49.234;7.268;2023-02-24T03:14:51;35.33;;;15.93;;
11078;SDS011;5592;49.234;7.268;2023-02-24T03:17:25;41.50;;;18.23;;
11078;SDS011;5592;49.234;7.268;2023-02-24T03:19:56;44.43;;;18.47;;
11078;SDS011;5592;49.234;7.268;2023-02-24T03:22:38;51.33;;;19.47;;
11078;SDS011;5592;49.234;7.268;2023-02-24T03:25:14;43.20;;;17.80;;
11078;SDS011;5592;49.234;7.268;2023-02-24T03:34:07;48.07;;;18.67;;
11078;SDS011;5592;49.234;7.268;2023-02-24T03:36:37;54.93;;;22.03;;
11078;SDS011;5592;49.234;7.268;2023-02-24T03:39:03;42.57;;;18.43;;
11078;SDS011;5592;49.234;7.268;2023-02-24T03:41:33;44.50;;;19.77;;
11078;SDS011;5592;49.234;7.268;2023-02-24T03:44:06;35.40;;;16.80;;
11078;SDS011;5592;49.234;7.268;2023-02-24T03:46:35;45.83;;;19.57;;
11078;SDS011;5592;49.234;7.268;2023-02-24T03:49:04;43.50;;;19.40;;
11078;SDS011;5592;49.234;7.268;2023-02-24T03:51:40;44.47;;;18.00;;
11078;SDS011;5592;49.234;7.268;2023-02-24T04:02:22;50.40;;;22.83;;
11078;SDS011;5592;49.234;7.268;2023-02-24T04:05:09;41.67;;;19.70;;
11078;SDS011;5592;49.234;7.268;2023-02-24T04:13:11;48.67;;;18.97;;
11078;SDS011;5592;49.234;7.268;2023-02-24T04:15:45;43.20;;;19.80;;
11078;SDS011;5592;49.234;7.268;2023-02-24T04:18:20;45.27;;;18.83;;
11078;SDS011;5592;49.234;7.268;2023-02-24T04:20:49;50.73;;;21.93;;
11078;SDS011;5592;49.234;7.268;2023-02-24T04:23:17;50.97;;;22.23;;
11078;SDS011;5592;49.234;7.268;2023-02-24T04:25:46;39.37;;;18.60;;
11078;SDS011;5592;49.234;7.268;2023-02-24T04:28:15;47.47;;;20.53;;
11078;SDS011;5592;49.234;7.268;2023-02-24T04:30:44;47.50;;;20.33;;
11078;SDS011;5592;49.234;7.268;2023-02-24T04:33:13;47.10;;;20.50;;
11078;SDS011;5592;49.234;7.268;2023-02-24T04:35:39;51.10;;;20.67;;
11078;SDS011;5592;49.234;7.268;2023-02-24T04:38:04;48.20;;;20.30;;
11078;SDS011;5592;49.234;7.268;2023-02-24T04:40:30;56.53;;;21.27;;
11078;SDS011;5592;49.234;7.268;2023-02-24T04:42:56;42.83;;;19.20;;
11078;SDS011;5592;49.234;7.268;2023-02-24T04:47:50;46.47;;;19.90;;
11078;SDS011;5592;49.234;7.268;2023-02-24T04:50:20;63.47;;;21.80;;
11078;SDS011;5592;49.234;7.268;2023-02-24T04:52:57;56.80;;;21.03;;
11078;SDS011;5592;49.234;7.268;2023-02-24T04:55:25;47.30;;;20.93;;
11078;SDS011;5592;49.234;7.268;2023-02-24T04:57:57;44.87;;;20.10;;
11078;SDS011;5592;49.234;7.268;2023-02-24T05:00:25;57.70;;;22.10;;
11078;SDS011;5592;49.234;7.268;2023-02-24T05:02:54;51.57;;;20.60;;
11078;SDS011;5592;49.234;7.268;2023-02-24T05:05:20;53.47;;;19.90;;
11078;SDS011;5592;49.234;7.268;2023-02-24T05:07:52;44.43;;;18.87;;
11078;SDS011;5592;49.234;7.268;2023-02-24T05:10:18;50.97;;;19.97;;
11078;SDS011;5592;49.234;7.268;2023-02-24T05:12:44;41.40;;;17.30;;
11078;SDS011;5592;49.234;7.268;2023-02-24T05:15:10;47.77;;;18.77;;
11078;SDS011;5592;49.234;7.268;2023-02-24T05:17:39;48.07;;;19.50;;
11078;SDS011;5592;49.234;7.268;2023-02-24T05:20:06;42.17;;;19.57;;
11078;SDS011;5592;49.234;7.268;2023-02-24T05:22:51;58.60;;;21.60;;
11078;SDS011;5592;49.234;7.268;2023-02-24T05:25:18;44.33;;;18.60;;
11078;SDS011;5592;49.234;7.268;2023-02-24T05:27:45;38.43;;;17.67;;
11078;SDS011;5592;49.234;7.268;2023-02-24T05:30:11;47.37;;;17.40;;
11078;SDS011;5592;49.234;7.268;2023-02-24T05:32:38;34.10;;;14.93;;
11078;SDS011;5592;49.234;7.268;2023-02-24T05:35:04;44.07;;;16.67;;
11078;SDS011;5592;49.234;7.268;2023-02-24T05:37:31;47.00;;;19.03;;
11078;SDS011;5592;49.234;7.268;2023-02-24T05:40:01;54.17;;;21.60;;
11078;SDS011;5592;49.234;7.268;2023-02-24T05:42:27;54.77;;;20.30;;
11078;SDS011;5592;49.234;7.268;2023-02-24T05:44:58;49.50;;;20.00;;
11078;SDS011;5592;49.234;7.268;2023-02-24T05:47:25;47.53;;;19.67;;
11078;SDS011;5592;49.234;7.268;2023-02-24T05:49:51;53.83;;;20.17;;
11078;SDS011;5592;49.234;7.268;2023-02-24T05:52:18;45.53;;;19.30;;
11078;SDS011;5592;49.234;7.268;2023-02-24T05:54:44;42.30;;;18.90;;
11078;SDS011;5592;49.234;7.268;2023-02-24T05:57:16;43.57;;;18.77;;
11078;SDS011;5592;49.234;7.268;2023-02-24T05:59:48;39.43;;;18.03;;
11078;SDS011;5592;49.234;7.268;2023-02-24T06:02:15;54.83;;;21.63;;
11078;SDS011;5592;49.234;7.268;2023-02-24T06:04:51;45.00;;;19.00;;
11078;SDS011;5592;49.234;7.268;2023-02-24T06:07:20;46.13;;;20.17;;
11078;SDS011;5592;49.234;7.268;2023-02-24T06:09:49;49.57;;;20.90;;
11078;SDS011;5592;49.234;7.268;2023-02-24T06:12:21;56.73;;;20.53;;
11078;SDS011;5592;49.234;7.268;2023-02-24T06:14:49;52.53;;;21.40;;
11078;SDS011;5592;49.234;7.268;2023-02-24T06:17:15;48.67;;;20.20;;
11078;SDS011;5592;49.234;7.268;2023-02-24T06:19:42;41.27;;;17.70;;
11078;SDS011;5592;49.234;7.268;2023-02-24T06:22:12;47.10;;;18.17;;
11078;SDS011;5592;49.234;7.268;2023-02-24T06:24:40;59.83;;;21.20;;
11078;SDS011;5592;49.234;7.268;2023-02-24T06:27:09;46.63;;;18.67;;
11078;SDS011;5592;49.234;7.268;2023-02-24T06:29:41;44.97;;;18.77;;
11078;SDS011;5592;49.234;7.268;2023-02-24T06:32:08;44.73;;;18.47;;
11078;SDS011;5592;49.234;7.268;2023-02-24T06:34:35;56.10;;;20.87;;
11078;SDS011;5592;49.234;7.268;2023-02-24T06:37:04;44.93;;;20.00;;
11078;SDS011;5592;49.234;7.268;2023-02-24T06:39:34;41.63;;;17.73;;
11078;SDS011;5592;49.234;7.268;2023-02-24T06:42:00;50.57;;;20.30;;
11078;SDS011;5592;49.234;7.268;2023-02-24T06:44:35;46.60;;;19.70;;
11078;SDS011;5592;49.234;7.268;2023-02-24T06:47:04;40.27;;;17.97;;
11078;SDS011;5592;49.234;7.268;2023-02-24T06:49:31;44.23;;;18.77;;
11078;SDS011;5592;49.234;7.268;2023-02-24T06:51:57;45.97;;;18.20;;
11078;SDS011;5592;49.234;7.268;2023-02-24T06:54:24;40.93;;;17.20;;
11078;SDS011;5592;49.234;7.268;2023-02-24T06:56:52;44.63;;;19.57;;
11078;SDS011;5592;49.234;7.268;2023-02-24T06:59:18;43.27;;;19.07;;
11078;SDS011;5592;49.234;7.268;2023-02-24T07:01:53;36.20;;;16.77;;
11078;SDS011;5592;49.234;7.268;2023-02-24T07:04:19;47.93;;;20.07;;
11078;SDS011;5592;49.234;7.268;2023-02-24T07:06:49;43.43;;;18.67;;
11078;SDS011;5592;49.234;7.268;2023-02-24T07:09:18;43.00;;;19.83;;
11078;SDS011;5592;49.234;7.268;2023-02-24T07:11:46;42.17;;;17.50;;
11078;SDS011;5592;49.234;7.268;2023-02-24T07:14:16;49.20;;;17.13;;
11078;SDS011;5592;49.234;7.268;2023-02-24T07:16:47;46.73;;;20.43;;
11078;SDS011;5592;49.234;7.268;2023-02-24T07:19:17;50.57;;;19.70;;
11078;SDS011;5592;49.234;7.268;2023-02-24T07:21:46;54.20;;;20.13;;
11078;SDS011;5592;49.234;7.268;2023-02-24T07:24:15;45.83;;;19.73;;
11078;SDS011;5592;49.234;7.268;2023-02-24T07:27:07;41.23;;;18.10;;
11078;SDS011;5592;49.234;7.268;2023-02-24T07:29:46;49.30;;;20.07;;
11078;SDS011;5592;49.234;7.268;2023-02-24T07:32:13;48.23;;;18.83;;
11078;SDS011;5592;49.234;7.268;2023-02-24T07:34:39;45.60;;;18.90;;
11078;SDS011;5592;49.234;7.268;2023-02-24T07:37:06;42.10;;;18.37;;
11078;SDS011;5592;49.234;7.268;2023-02-24T07:39:33;45.33;;;19.67;;
11078;SDS011;5592;49.234;7.268;2023-02-24T07:42:00;46.23;;;19.97;;
11078;SDS011;5592;49.234;7.268;2023-02-24T07:44:26;51.47;;;21.77;;
11078;SDS011;5592;49.234;7.268;2023-02-24T07:46:53;43.40;;;20.33;;
11078;SDS011;5592;49.234;7.268;2023-02-24T07:49:21;42.90;;;21.00;;
11078;SDS011;5592;49.234;7.268;2023-02-24T07:51:50;45.30;;;19.67;;
11078;SDS011;5592;49.234;7.268;2023-02-24T07:54:20;40.23;;;19.00;;
11078;SDS011;5592;49.234;7.268;2023-02-24T07:56:47;41.67;;;19.33;;
11078;SDS011;5592;49.234;7.268;2023-02-24T07:59:21;42.73;;;19.37;;
11078;SDS011;5592;49.234;7.268;2023-02-24T08:01:48;40.03;;;18.00;;
11078;SDS011;5592;49.234;7.268;2023-02-24T08:04:14;37.93;;;18.57;;
11078;SDS011;5592;49.234;7.268;2023-02-24T08:06:42;50.70;;;19.83;;
11078;SDS011;5592;49.234;7.268;2023-02-24T08:09:09;36.10;;;18.40;;
11078;SDS011;5592;49.234;7.268;2023-02-24T08:14:13;34.87;;;17.70;;
11078;SDS011;5592;49.234;7.268;2023-02-24T08:16:42;41.43;;;18.57;;
11078;SDS011;5592;49.234;7.268;2023-02-24T08:19:11;42.47;;;20.23;;
11078;SDS011;5592;49.234;7.268;2023-02-24T08:21:46;41.40;;;17.00;;
11078;SDS011;5592;49.234;7.268;2023-02-24T08:24:21;52.60;;;19.20;;
11078;SDS011;5592;49.234;7.268;2023-02-24T08:26:51;38.83;;;19.67;;
11078;SDS011;5592;49.234;7.268;2023-02-24T08:29:31;40.07;;;18.73;;
11078;SDS011;5592;49.234;7.268;2023-02-24T08:32:08;36.40;;;17.13;;
11078;SDS011;5592;49.234;7.268;2023-02-24T08:34:37;48.93;;;18.70;;
11078;SDS011;5592;49.234;7.268;2023-02-24T08:37:03;47.20;;;20.53;;
11078;SDS011;5592;49.234;7.268;2023-02-24T08:39:30;42.10;;;18.63;;
11078;SDS011;5592;49.234;7.268;2023-02-24T08:41:58;36.23;;;17.90;;
11078;SDS011;5592;49.234;7.268;2023-02-24T08:44:23;38.73;;;18.73;;
11078;SDS011;5592;49.234;7.268;2023-02-24T08:46:51;39.30;;;19.27;;
11078;SDS011;5592;49.234;7.268;2023-02-24T08:49:21;41.37;;;19.13;;
11078;SDS011;5592;49.234;7.268;2023-02-24T08:51:49;42.80;;;18.13;;
11078;SDS011;5592;49.234;7.268;2023-02-24T08:54:20;37.83;;;19.07;;
11078;SDS011;5592;49.234;7.268;2023-02-24T08:56:56;38.33;;;17.83;;
11078;SDS011;5592;49.234;7.268;2023-02-24T08:59:32;41.57;;;17.77;;
11078;SDS011;5592;49.234;7.268;2023-02-24T09:02:05;40.67;;;19.93;;
11078;SDS011;5592;49.234;7.268;2023-02-24T09:04:46;41.60;;;19.50;;
11078;SDS011;5592;49.234;7.268;2023-02-24T09:07:14;41.00;;;17.10;;
11078;SDS011;5592;49.234;7.268;2023-02-24T09:09:42;38.77;;;19.60;;
11078;SDS011;5592;49.234;7.268;2023-02-24T09:12:08;36.63;;;17.67;;
11078;SDS011;5592;49.234;7.268;2023-02-24T09:14:47;36.60;;;16.87;;
11078;SDS011;5592;49.234;7.268;2023-02-24T09:17:14;39.27;;;17.53;;
11078;SDS011;5592;49.234;7.268;2023-02-24T09:22:12;30.43;;;17.00;;
11078;SDS011;5592;49.234;7.268;2023-02-24T09:24:39;37.13;;;18.97;;
11078;SDS011;5592;49.234;7.268;2023-02-24T09:27:06;40.77;;;18.63;;
11078;SDS011;5592;49.234;7.268;2023-02-24T09:29:32;41.13;;;20.00;;
11078;SDS011;5592;49.234;7.268;2023-02-24T09:31:58;36.43;;;17.93;;
11078;SDS011;5592;49.234;7.268;2023-02-24T09:37:00;34.77;;;17.47;;
11078;SDS011;5592;49.234;7.268;2023-02-24T09:39:34;36.63;;;17.53;;
11078;SDS011;5592;49.234;7.268;2023-02-24T09:42:19;33.63;;;17.10;;
11078;SDS011;5592;49.234;7.268;2023-02-24T09:44:53;38.50;;;18.87;;
11078;SDS011;5592;49.234;7.268;2023-02-24T09:52:56;35.23;;;17.00;;
11078;SDS011;5592;49.234;7.268;2023-02-24T09:55:41;32.40;;;16.17;;
11078;SDS011;5592;49.234;7.268;2023-02-24T09:58:43;34.63;;;18.10;;
11078;SDS011;5592;49.234;7.268;2023-02-24T10:07:26;29.23;;;16.07;;
11078;SDS011;5592;49.234;7.268;2023-02-24T10:09:39;31.53;;;16.77;;
11078;SDS011;5592;49.234;7.268;2023-02-24T10:12:48;32.40;;;16.83;;
11078;SDS011;5592;49.234;7.268;2023-02-24T10:15:40;34.93;;;16.20;;
11078;SDS011;5592;49.234;7.268;2023-02-24T10:24:22;26.03;;;12.77;;
11078;SDS011;5592;49.234;7.268;2023-02-24T10:27:19;25.93;;;14.77;;
11078;SDS011;5592;49.234;7.268;2023-02-24T10:32:54;26.50;;;13.97;;
11078;SDS011;5592;49.234;7.268;2023-02-24T10:35:23;30.27;;;15.53;;
11078;SDS011;5592;49.234;7.268;2023-02-24T10:37:57;31.73;;;14.93;;
11078;SDS011;5592;49.234;7.268;2023-02-24T10:40:29;31.03;;;14.77;;
11078;SDS011;5592;49.234;7.268;2023-02-24T10:43:14;26.43;;;14.00;;
11078;SDS011;5592;49.234;7.268;2023-02-24T10:45:54;25.63;;;14.57;;
11078;SDS011;5592;49.234;7.268;2023-02-24T10:48:30;25.87;;;13.20;;
11078;SDS011;5592;49.234;7.268;2023-02-24T10:51:07;27.27;;;13.20;;
11078;SDS011;5592;49.234;7.268;2023-02-24T10:53:45;27.83;;;14.80;;
11078;SDS011;5592;49.234;7.268;2023-02-24T10:56:33;25.00;;;12.87;;
11078;SDS011;5592;49.234;7.268;2023-02-24T10:59:15;26.70;;;13.17;;
11078;SDS011;5592;49.234;7.268;2023-02-24T11:01:55;22.07;;;12.80;;
11078;SDS011;5592;49.234;7.268;2023-02-24T11:04:35;22.73;;;12.73;;
11078;SDS011;5592;49.234;7.268;2023-02-24T11:07:29;21.00;;;12.47;;
11078;SDS011;5592;49.234;7.268;2023-02-24T11:12:50;19.40;;;11.53;;
11078;SDS011;5592;49.234;7.268;2023-02-24T11:18:36;22.43;;;12.27;;
11078;SDS011;5592;49.234;7.268;2023-02-24T11:21:10;21.10;;;12.37;;
11078;SDS011;5592;49.234;7.268;2023-02-24T11:23:43;21.30;;;11.70;;
11078;SDS011;5592;49.234;7.268;2023-02-24T11:26:14;19.33;;;9.80;;
11078;SDS011;5592;49.234;7.268;2023-02-24T11:39:46;21.00;;;11.40;;
11078;SDS011;5592;49.234;7.268;2023-02-24T11:44:57;16.13;;;9.37;;
11078;SDS011;5592;49.234;7.268;2023-02-24T11:47:47;13.27;;;9.13;;
11078;SDS011;5592;49.234;7.268;2023-02-24T11:52:43;17.63;;;9.87;;
11078;SDS011;5592;49.234;7.268;2023-02-24T11:55:22;13.90;;;8.70;;
11078;SDS011;5592;49.234;7.268;2023-02-24T11:58:00;18.17;;;9.47;;
11078;SDS011;5592;49.234;7.268;2023-02-24T12:00:32;17.13;;;9.40;;
11078;SDS011;5592;49.234;7.268;2023-02-24T12:03:11;22.13;;;8.60;;
11078;SDS011;5592;49.234;7.268;2023-02-24T12:05:49;22.50;;;9.77;;
11078;SDS011;5592;49.234;7.268;2023-02-24T12:08:30;18.20;;;9.50;;
11078;SDS011;5592;49.234;7.268;2023-02-24T12:11:18;13.50;;;7.67;;
11078;SDS011;5592;49.234;7.268;2023-02-24T12:14:24;18.30;;;8.00;;
11078;SDS011;5592;49.234;7.268;2023-02-24T12:22:33;17.07;;;8.70;;
11078;SDS011;5592;49.234;7.268;2023-02-24T12:25:10;18.57;;;9.43;;
11078;SDS011;5592;49.234;7.268;2023-02-24T12:35:46;12.10;;;6.70;;
11078;SDS011;5592;49.234;7.268;2023-02-24T12:41:48;13.00;;;7.17;;
11078;SDS011;5592;49.234;7.268;2023-02-24T12:46:55;13.30;;;7.13;;
11078;SDS011;5592;49.234;7.268;2023-02-24T12:52:23;12.00;;;6.70;;
11078;SDS011;5592;49.234;7.268;2023-02-24T12:57:41;12.20;;;7.10;;
11078;SDS011;5592;49.234;7.268;2023-02-24T13:00:35;14.30;;;7.33;;
11078;SDS011;5592;49.234;7.268;2023-02-24T13:05:44;15.90;;;7.27;;
11078;SDS011;5592;49.234;7.268;2023-02-24T13:16:12;19.80;;;8.33;;
11078;SDS011;5592;49.234;7.268;2023-02-24T13:18:38;14.53;;;8.33;;
11078;SDS011;5592;49.234;7.268;2023-02-24T13:21:05;13.57;;;6.50;;
11078;SDS011;5592;49.234;7.268;2023-02-24T13:23:39;14.63;;;7.93;;
11078;SDS011;5592;49.234;7.268;2023-02-24T13:26:06;14.10;;;7.50;;
11078;SDS011;5592;49.234;7.268;2023-02-24T13:28:33;14.63;;;6.80;;
11078;SDS011;5592;49.234;7.268;2023-02-24T13:31:02;12.10;;;7.20;;
11078;SDS011;5592;49.234;7.268;2023-02-24T13:33:40;17.13;;;6.77;;
11078;SDS011;5592;49.234;7.268;2023-02-24T13:36:09;14.13;;;7.87;;
11078;SDS011;5592;49.234;7.268;2023-02-24T13:38:41;14.93;;;7.57;;
11078;SDS011;5592;49.234;7.268;2023-02-24T13:46:23;13.13;;;7.73;;
11078;SDS011;5592;49.234;7.268;2023-02-24T13:48:54;12.70;;;7.90;;
11078;SDS011;5592;49.234;7.268;2023-02-24T13:56:52;12.20;;;7.43;;
11078;SDS011;5592;49.234;7.268;2023-02-24T14:02:26;13.13;;;6.87;;
11078;SDS011;5592;49.234;7.268;2023-02-24T14:04:54;11.00;;;6.67;;
11078;SDS011;5592;49.234;7.268;2023-02-24T14:07:23;13.23;;;6.73;;
11078;SDS011;5592;49.234;7.268;2023-02-24T14:09:52;15.17;;;7.53;;
11078;SDS011;5592;49.234;7.268;2023-02-24T14:12:43;13.80;;;7.23;;
11078;SDS011;5592;49.234;7.268;2023-02-24T14:15:20;12.97;;;6.97;;
11078;SDS011;5592;49.234;7.268;2023-02-24T14:17:56;12.23;;;6.73;;
11078;SDS011;5592;49.234;7.268;2023-02-24T14:20:24;11.40;;;6.20;;
11078;SDS011;5592;49.234;7.268;2023-02-24T14:22:52;11.30;;;6.00;;
11078;SDS011;5592;49.234;7.268;2023-02-24T14:25:20;15.50;;;7.00;;
11078;SDS011;5592;49.234;7.268;2023-02-24T14:27:48;19.13;;;6.80;;
11078;SDS011;5592;49.234;7.268;2023-02-24T14:32:57;15.37;;;7.57;;
11078;SDS011;5592;49.234;7.268;2023-02-24T14:35:32;13.70;;;7.70;;
11078;SDS011;5592;49.234;7.268;2023-02-24T14:38:01;13.93;;;8.07;;
11078;SDS011;5592;49.234;7.268;2023-02-24T14:40:28;14.10;;;7.77;;
11078;SDS011;5592;49.234;7.268;2023-02-24T14:42:54;16.27;;;8.23;;
11078;SDS011;5592;49.234;7.268;2023-02-24T14:45:23;17.17;;;9.10;;
11078;SDS011;5592;49.234;7.268;2023-02-24T14:47:54;15.47;;;8.30;;
11078;SDS011;5592;49.234;7.268;2023-02-24T14:50:27;14.43;;;8.20;;
11078;SDS011;5592;49.234;7.268;2023-02-24T14:55:30;13.67;;;6.27;;
11078;SDS011;5592;49.234;7.268;2023-02-24T14:58:02;16.93;;;8.60;;
11078;SDS011;5592;49.234;7.268;2023-02-24T15:00:34;13.50;;;7.50;;
11078;SDS011;5592;49.234;7.268;2023-02-24T15:03:18;14.83;;;8.40;;
11078;SDS011;5592;49.234;7.268;2023-02-24T15:06:10;16.97;;;7.90;;
11078;SDS011;5592;49.234;7.268;2023-02-24T15:08:42;13.43;;;8.20;;
11078;SDS011;5592;49.234;7.268;2023-02-24T15:13:42;14.33;;;7.97;;
11078;SDS011;5592;49.234;7.268;2023-02-24T15:18:50;14.23;;;7.60;;
11078;SDS011;5592;49.234;7.268;2023-02-24T15:21:21;14.70;;;8.53;;
11078;SDS011;5592;49.234;7.268;2023-02-24T15:24:25;17.90;;;8.23;;
11078;SDS011;5592;49.234;7.268;2023-02-24T15:29:43;13.90;;;7.90;;
11078;SDS011;5592;49.234;7.268;2023-02-24T15:32:22;12.70;;;7.57;;
11078;SDS011;5592;49.234;7.268;2023-02-24T15:34:49;15.93;;;6.80;;
11078;SDS011;5592;49.234;7.268;2023-02-24T15:37:38;9.33;;;7.37;;
11078;SDS011;5592;49.234;7.268;2023-02-24T15:40:10;13.50;;;6.97;;
11078;SDS011;5592;49.234;7.268;2023-02-24T15:43:29;10.60;;;6.10;;
11078;SDS011;5592;49.234;7.268;2023-02-24T15:45:35;15.00;;;6.47;;
11078;SDS011;5592;49.234;7.268;2023-02-24T15:48:03;13.50;;;6.40;;
11078;SDS011;5592;49.234;7.268;2023-02-24T15:50:44;12.07;;;6.53;;
11078;SDS011;5592;49.234;7.268;2023-02-24T15:53:10;14.10;;;6.97;;
11078;SDS011;5592;49.234;7.268;2023-02-24T15:55:37;17.23;;;6.60;;
11078;SDS011;5592;49.234;7.268;2023-02-24T15:58:04;14.73;;;6.83;;
11078;SDS011;5592;49.234;7.268;2023-02-24T16:00:31;10.00;;;5.33;;
11078;SDS011;5592;49.234;7.268;2023-02-24T16:02:56;9.83;;;6.50;;
11078;SDS011;5592;49.234;7.268;2023-02-24T16:05:23;17.87;;;7.77;;
11078;SDS011;5592;49.234;7.268;2023-02-24T16:07:49;12.17;;;6.53;;
11078;SDS011;5592;49.234;7.268;2023-02-24T16:10:20;10.73;;;6.60;;
11078;SDS011;5592;49.234;7.268;2023-02-24T16:12:55;13.57;;;6.63;;
11078;SDS011;5592;49.234;7.268;2023-02-24T16:15:24;15.47;;;6.47;;
11078;SDS011;5592;49.234;7.268;2023-02-24T16:17:54;13.43;;;7.30;;
11078;SDS011;5592;49.234;7.268;2023-02-24T16:20:24;17.20;;;7.10;;
11078;SDS011;5592;49.234;7.268;2023-02-24T16:22:52;12.23;;;7.47;;
11078;SDS011;5592;49.234;7.268;2023-02-24T16:25:20;14.40;;;7.63;;
11078;SDS011;5592;49.234;7.268;2023-02-24T16:27:46;13.33;;;6.80;;
11078;SDS011;5592;49.234;7.268;2023-02-24T16:30:18;12.07;;;6.93;;
11078;SDS011;5592;49.234;7.268;2023-02-24T16:32:44;12.63;;;6.97;;
11078;SDS011;5592;49.234;7.268;2023-02-24T16:35:10;9.27;;;6.00;;
11078;SDS011;5592;49.234;7.268;2023-02-24T16:37:40;14.10;;;7.10;;
11078;SDS011;5592;49.234;7.268;2023-02-24T16:40:19;15.97;;;6.57;;
11078;SDS011;5592;49.234;7.268;2023-02-24T16:42:50;11.23;;;6.60;;
11078;SDS011;5592;49.234;7.268;2023-02-24T16:45:19;10.33;;;6.60;;
11078;SDS011;5592;49.234;7.268;2023-02-24T16:47:46;11.17;;;7.00;;
11078;SDS011;5592;49.234;7.268;2023-02-24T16:50:25;13.60;;;7.90;;
11078;SDS011;5592;49.234;7.268;2023-02-24T16:52:55;14.50;;;7.87;;
11078;SDS011;5592;49.234;7.268;2023-02-24T16:55:21;11.80;;;6.20;;
11078;SDS011;5592;49.234;7.268;2023-02-24T16:57:47;12.30;;;7.70;;
11078;SDS011;5592;49.234;7.268;2023-02-24T17:00:14;16.00;;;7.00;;
11078;SDS011;5592;49.234;7.268;2023-02-24T17:02:41;12.80;;;7.40;;
11078;SDS011;5592;49.234;7.268;2023-02-24T17:05:11;12.30;;;6.87;;
11078;SDS011;5592;49.234;7.268;2023-02-24T17:07:41;11.17;;;6.60;;
11078;SDS011;5592;49.234;7.268;2023-02-24T17:10:07;11.03;;;6.57;;
11078;SDS011;5592;49.234;7.268;2023-02-24T17:12:33;11.83;;;6.43;;
11078;SDS011;5592;49.234;7.268;2023-02-24T17:14:59;14.43;;;7.20;;
11078;SDS011;5592;49.234;7.268;2023-02-24T17:17:24;16.60;;;7.20;;
11078;SDS011;5592;49.234;7.268;2023-02-24T17:19:50;13.70;;;7.10;;
11078;SDS011;5592;49.234;7.268;2023-02-24T17:22:16;11.73;;;6.60;;
11078;SDS011;5592;49.234;7.268;2023-02-24T17:24:41;13.43;;;7.17;;
11078;SDS011;5592;49.234;7.268;2023-02-24T17:27:08;10.70;;;7.27;;
11078;SDS011;5592;49.234;7.268;2023-02-24T17:29:35;12.10;;;6.40;;
11078;SDS011;5592;49.234;7.268;2023-02-24T17:32:00;13.53;;;7.03;;
11078;SDS011;5592;49.234;7.268;2023-02-24T17:34:26;12.60;;;7.07;;
11078;SDS011;5592;49.234;7.268;2023-02-24T17:36:54;16.73;;;7.73;;
11078;SDS011;5592;49.234;7.268;2023-02-24T17:39:20;11.00;;;5.50;;
11078;SDS011;5592;49.234;7.268;2023-02-24T17:41:45;13.20;;;7.37;;
11078;SDS011;5592;49.234;7.268;2023-02-24T17:44:11;13.30;;;7.03;;